PATE

Details ICAO PATE (TLA)
Name Teller
Region USA (Alaska)
Timezone America/Nome (UTC-8.0)
Plans Departing 0
Arriving 1
Stats Elevation 294 ft / 90 m (AMSL)
Location 65.240379° -166.339340°
Runways 1
Magnetic Variation 9.480° E
Sunrise 2018-05-24 13:05:19 UTC / 2018-05-24 05:05:19 Local
Sunset 2018-05-25 09:02:02 UTC / 2018-05-25 01:02:02 Local
Advertisement - Login to hide

Runways

ID Width Length Bearing (true) Bearing (mag) Surface Threshold Offset Overrun Length
07 59 ft / 18 m 3,003 ft / 915 m 89.00° 79.52° Gravel 0 ft / 0 m 240 ft / 73 m
25 59 ft / 18 m 3,003 ft / 915 m 269.02° 259.54° Gravel 0 ft / 0 m 240 ft / 73 m

Map

Weather


0- 5 10 15 20 25 30 35+ Temperature / ° C

Clouds and Precipitation
Forecast for 2018-05-24 18:00 UTC. Updated 5 hours ago

Ground ~20,000 ft ~40,000 ft Winds

METAR

PATE 242156Z AUTO 02011KT 10SM CLR 04/M02 A2981 RMK AO2 SLP100 T00441017

TAF

Not found

Frequencies

Recorded 118.37 MHz AWOS-3
Approach 133.30 MHz ANCHORAGE CNTR
Unicom 123.00 MHz CTAF
Warning: Do not use this data for real-world aviation or navigation. No guarantee of current accuracy is given.